Time;durP1;ratioP1;P1;durP2;ratioP2;P2;SDS_P1;SDS_P2;PMS_P1;PMS_P2;Temp;Humidity;BMP_temperature;BMP_pressure;BME280_temperature;BME280_humidity;BME280_pressure;Samples;Min_cycle;Max_cycle;Signal;HPM_P1;HPM_P2
2022/07/25 00:00:20;;;;;;;13.55;6.65;;;;;;;-145.69;95.05;70640.34;5076012;28;20289;-78
2022/07/25 00:02:47;;;;;;;9.70;7.00;;;;;;;-145.69;98.02;70676.16;5075403;28;20206;-77
2022/07/25 00:05:13;;;;;;;10.30;7.05;;;;;;;-145.69;99.92;70700.03;5075731;28;20195;-77
2022/07/25 00:07:40;;;;;;;12.75;7.10;;;;;;;-145.69;100.00;70702.03;5075749;28;20198;-77
2022/07/25 00:10:09;;;;;;;11.07;7.63;;;;;;;-145.69;100.00;70717.94;5075748;28;20199;-77
2022/07/25 00:12:36;;;;;;;12.45;7.63;;;;;;;-145.69;100.00;70725.91;5075777;28;20203;-77
2022/07/25 00:15:04;;;;;;;14.90;7.20;;;;;;;-145.69;100.00;70729.88;5075885;28;20206;-77
2022/07/25 00:17:30;;;;;;;11.32;7.40;;;;;;;-145.69;100.00;70731.88;5075591;28;20203;-77
2022/07/25 00:19:57;;;;;;;11.18;7.35;;;;;;;-145.69;100.00;70721.91;5075690;28;20561;-79
2022/07/25 00:22:23;;;;;;;11.15;7.60;;;;;;;-145.69;100.00;70729.88;5074304;28;20484;-79
2022/07/25 00:24:50;;;;;;;9.65;7.32;;;;;;;-145.69;100.00;70721.91;5075364;28;20195;-77
2022/07/25 00:27:18;;;;;;;11.43;6.88;;;;;;;-145.69;100.00;70723.91;5071362;28;20593;-77
2022/07/25 00:29:44;;;;;;;14.50;6.95;;;;;;;-145.69;100.00;70729.88;5074997;28;20209;-77
2022/07/25 00:32:11;;;;;;;10.25;7.53;;;;;;;-145.69;100.00;70743.81;5075485;28;20213;-77
2022/07/25 00:34:37;;;;;;;13.68;7.68;;;;;;;-145.69;100.00;70753.75;5075151;28;20206;-77
2022/07/25 00:37:04;;;;;;;10.52;7.05;;;;;;;-145.69;100.00;70759.72;5075164;28;20252;-77
2022/07/25 00:39:31;;;;;;;10.73;7.35;;;;;;;-145.69;100.00;70731.88;5075048;28;20194;-77
2022/07/25 00:41:57;;;;;;;12.05;7.63;;;;;;;-145.69;100.00;70741.81;5075022;28;20223;-77
2022/07/25 00:44:27;;;;;;;11.40;7.30;;;;;;;-145.69;100.00;70755.75;5075121;28;20198;-78
2022/07/25 00:46:54;;;;;;;12.77;7.20;;;;;;;-145.69;100.00;70729.88;5075195;28;20195;-77
2022/07/25 00:49:20;;;;;;;12.77;7.40;;;;;;;-145.69;100.00;70733.84;5074722;28;20222;-77
2022/07/25 00:51:47;;;;;;;11.57;7.88;;;;;;;-145.69;100.00;70741.81;5074997;28;20199;-80
2022/07/25 00:54:15;;;;;;;10.48;7.00;;;;;;;-145.69;100.00;70761.72;5075217;28;20203;-77
2022/07/25 00:56:42;;;;;;;9.77;7.05;;;;;;;-145.69;100.00;70765.69;5075046;28;20205;-77
2022/07/25 00:59:09;;;;;;;11.68;7.75;;;;;;;-145.69;100.00;70773.66;5074730;28;20222;-77
2022/07/25 01:01:41;;;;;;;9.32;7.43;;;;;;;-145.69;100.00;70773.66;5074492;28;20227;-79
2022/07/25 01:04:08;;;;;;;12.77;7.70;;;;;;;-145.69;100.00;70767.69;5074400;28;20207;-77
2022/07/25 01:06:35;;;;;;;10.43;7.80;;;;;;;-145.69;100.00;70769.66;5074961;28;20202;-77
2022/07/25 01:09:02;;;;;;;8.45;6.78;;;;;;;-145.69;100.00;70765.69;5074460;28;20203;-77
2022/07/25 01:11:28;;;;;;;11.35;7.78;;;;;;;-145.69;100.00;70747.78;5074736;28;20564;-77
2022/07/25 01:13:55;;;;;;;10.00;7.43;;;;;;;-145.69;100.00;70751.75;5074312;28;20194;-77
2022/07/25 01:16:21;;;;;;;9.82;7.72;;;;;;;-145.69;100.00;70753.75;5073660;28;20206;-77
2022/07/25 01:18:49;;;;;;;11.57;7.57;;;;;;;-145.69;100.00;70751.75;5056792;28;20210;-78
2022/07/25 01:21:17;;;;;;;11.63;7.22;;;;;;;-145.69;100.00;70761.72;5054546;28;20234;-77
2022/07/25 01:23:44;;;;;;;12.55;7.72;;;;;;;-145.69;100.00;70761.72;5053391;28;20203;-77
2022/07/25 01:26:10;;;;;;;17.08;7.68;;;;;;;-145.69;100.00;70765.69;5070797;28;20669;-79
2022/07/25 01:28:37;;;;;;;11.60;8.15;;;;;;;-145.69;100.00;70765.69;5074308;28;20199;-77
2022/07/25 01:31:03;;;;;;;11.43;7.60;;;;;;;-145.69;100.00;70767.69;5074146;28;20203;-78
2022/07/25 01:33:30;;;;;;;14.82;7.38;;;;;;;-145.69;100.00;70749.78;5074435;28;20210;-77
2022/07/25 01:35:56;;;;;;;11.50;8.13;;;;;;;-145.69;100.00;70715.94;5073443;28;20204;-77
2022/07/25 01:38:24;;;;;;;15.50;7.57;;;;;;;-145.69;100.00;70713.97;5072473;28;20225;-78
2022/07/25 01:40:51;;;;;;;11.35;7.25;;;;;;;-145.69;100.00;70729.88;5073854;28;20198;-77
2022/07/25 01:43:18;;;;;;;11.02;7.70;;;;;;;-145.69;100.00;70743.81;5073622;28;20202;-77
2022/07/25 01:45:44;;;;;;;9.80;7.50;;;;;;;-145.69;100.00;70749.78;5073854;28;20205;-77
2022/07/25 01:48:11;;;;;;;10.60;7.35;;;;;;;-145.69;100.00;70749.78;5073939;28;20195;-77
2022/07/25 01:50:37;;;;;;;10.05;7.05;;;;;;;-145.69;100.00;70725.91;5073940;28;20235;-78
2022/07/25 01:53:05;;;;;;;12.93;7.05;;;;;;;-145.69;100.00;70725.91;5073832;28;20215;-79
2022/07/25 01:55:33;;;;;;;10.35;7.20;;;;;;;-145.69;100.00;70711.97;5073740;28;20203;-80
2022/07/25 01:57:59;;;;;;;12.23;7.43;;;;;;;-145.69;100.00;70709.97;5073789;28;20211;-78
2022/07/25 02:00:26;;;;;;;11.38;7.05;;;;;;;-145.69;100.00;70713.97;5073570;28;20593;-79
2022/07/25 02:03:28;;;;;;;11.02;7.75;;;;;;;-145.69;100.00;70729.88;5073791;28;20226;-77
2022/07/25 02:05:39;;;;;;;13.32;7.40;;;;;;;-145.69;100.00;70737.84;5073451;28;20207;-77
2022/07/25 02:08:06;;;;;;;10.68;7.90;;;;;;;-145.69;100.00;70733.84;5073623;28;20298;-77
2022/07/25 02:10:34;;;;;;;12.95;7.57;;;;;;;-145.69;100.00;70713.97;5073473;28;20194;-76
2022/07/25 02:13:01;;;;;;;11.55;7.53;;;;;;;-145.69;99.86;70708.00;5072018;28;20202;-76
2022/07/25 02:15:27;;;;;;;11.27;7.60;;;;;;;-145.69;100.00;70715.94;5072529;28;20711;-77
2022/07/25 02:17:54;;;;;;;12.40;7.75;;;;;;;-145.69;100.00;70723.91;5073178;28;20194;-76
2022/07/25 02:20:20;;;;;;;13.57;8.10;;;;;;;-145.69;100.00;70729.88;5073256;28;20664;-78
2022/07/25 02:22:47;;;;;;;12.88;7.72;;;;;;;-145.69;100.00;70709.97;5073176;28;20227;-77
2022/07/25 02:25:14;;;;;;;9.77;7.25;;;;;;;-145.69;98.03;70676.16;5073173;28;20203;-77
2022/07/25 02:27:41;;;;;;;10.60;7.13;;;;;;;-145.69;97.45;70666.22;5073073;28;20230;-77
2022/07/25 02:30:09;;;;;;;11.45;8.38;;;;;;;-145.69;95.90;70642.34;5072645;28;20203;-77
2022/07/25 02:32:35;;;;;;;10.23;7.38;;;;;;;-145.69;94.74;70624.44;5073060;28;20198;-77
2022/07/25 02:35:02;;;;;;;11.30;7.38;;;;;;;-145.69;93.07;70606.53;5073045;28;20560;-77
2022/07/25 02:37:28;;;;;;;9.00;6.93;;;;;;;-145.69;91.96;70602.56;5073122;28;20202;-76
2022/07/25 02:39:54;;;;;;;11.57;7.03;;;;;;;-145.69;91.40;70588.63;5073010;28;20672;-77
2022/07/25 02:42:21;;;;;;;10.82;7.55;;;;;;;-145.69;90.28;70578.69;5073095;28;20231;-77
2022/07/25 02:44:49;;;;;;;10.15;7.15;;;;;;;-145.69;89.50;70562.75;5071931;28;20199;-76
2022/07/25 02:47:15;;;;;;;12.38;7.18;;;;;;;-145.69;90.23;70564.75;5071979;28;20194;-77
2022/07/25 02:49:42;;;;;;;13.07;7.53;;;;;;;-145.69;88.99;70562.75;5072517;28;20320;-77
2022/07/25 02:52:08;;;;;;;10.88;7.05;;;;;;;-145.69;89.22;70570.72;5072862;28;20207;-76
2022/07/25 02:54:35;;;;;;;10.60;6.38;;;;;;;-145.69;90.16;70582.66;5072854;28;20199;-76
2022/07/25 02:57:01;;;;;;;11.23;7.10;;;;;;;-145.69;88.46;70570.72;5073241;28;20203;-77
2022/07/25 02:59:28;;;;;;;9.65;7.00;;;;;;;-145.69;88.89;70574.69;5073051;28;20199;-76
2022/07/25 03:01:55;;;;;;;8.52;6.68;;;;;;;-145.69;90.59;70598.56;5073019;28;20530;-76
2022/07/25 03:04:22;;;;;;;12.48;7.75;;;;;;;-145.69;90.73;70594.59;5072743;28;20252;-76
2022/07/25 03:06:48;;;;;;;9.80;6.75;;;;;;;-145.69;90.26;70594.59;5072787;28;20238;-76
2022/07/25 03:09:15;;;;;;;9.73;7.22;;;;;;;-145.69;91.20;70594.59;5072402;28;20199;-76
2022/07/25 03:11:41;;;;;;;10.73;7.72;;;;;;;-145.69;90.06;70580.66;5071453;28;20920;-77
2022/07/25 03:14:08;;;;;;;11.02;7.85;;;;;;;-145.69;88.76;70568.72;5072805;28;20198;-77
2022/07/25 03:16:35;;;;;;;10.38;7.47;;;;;;;-145.69;89.84;70574.69;5072788;28;20209;-76
2022/07/25 03:19:03;;;;;;;9.68;7.10;;;;;;;-145.69;89.46;70574.69;5070039;28;20234;-77
2022/07/25 03:21:29;;;;;;;11.43;7.57;;;;;;;-145.69;89.11;70566.75;5052536;28;20199;-76
2022/07/25 03:23:56;;;;;;;11.85;7.25;;;;;;;-145.69;90.04;70590.63;5055316;28;20196;-77
2022/07/25 03:26:22;;;;;;;9.93;7.32;;;;;;;-145.69;90.63;70602.56;5056847;28;20566;-77
2022/07/25 03:28:49;;;;;;;9.23;7.60;;;;;;;-145.69;89.04;70582.66;5056711;28;20210;-77
2022/07/25 03:31:15;;;;;;;12.23;6.97;;;;;;;-145.69;89.92;70594.59;5056656;28;20199;-77
2022/07/25 03:33:42;;;;;;;10.77;7.47;;;;;;;-145.69;88.48;70568.72;5056598;28;20535;-77
2022/07/25 03:36:10;;;;;;;10.98;7.60;;;;;;;-145.69;87.97;70558.78;5056342;28;20218;-79
2022/07/25 03:38:36;;;;;;;10.15;7.10;;;;;;;-145.69;86.88;70554.81;5068551;28;20373;-77
2022/07/25 03:41:03;;;;;;;10.20;7.15;;;;;;;-145.69;86.33;70542.88;5076572;28;20199;-77
2022/07/25 03:43:30;;;;;;;9.65;6.78;;;;;;;-145.69;85.30;70513.03;5076302;28;20249;-77
2022/07/25 03:45:57;;;;;;;9.75;7.25;;;;;;;-145.69;84.81;70511.03;5075712;28;20433;-79
2022/07/25 03:48:23;;;;;;;10.02;6.78;;;;;;;-145.69;85.60;70511.03;5073757;28;20198;-77
2022/07/25 03:50:50;;;;;;;9.15;7.22;;;;;;;-145.69;83.84;70487.16;5076038;28;20237;-78
2022/07/25 03:53:18;;;;;;;8.52;6.53;;;;;;;-145.69;84.65;70495.13;5075861;28;20206;-78
2022/07/25 03:55:44;;;;;;;10.65;7.18;;;;;;;-145.69;84.80;70499.09;5076309;28;20210;-78
2022/07/25 03:58:10;;;;;;;9.32;6.53;;;;;;;-145.69;84.27;70483.19;5076078;28;20323;-78
2022/07/25 04:00:37;;;;;;;10.90;7.15;;;;;;;-145.69;82.71;70471.25;5075993;28;20207;-77
2022/07/25 04:03:05;;;;;;;10.25;7.10;;;;;;;-145.69;82.89;70469.25;5075798;28;20230;-77
2022/07/25 04:05:32;;;;;;;10.30;6.53;;;;;;;-145.69;83.87;70485.16;5075890;28;20210;-77
2022/07/25 04:07:59;;;;;;;10.20;7.28;;;;;;;-145.69;84.57;70499.09;5075416;28;20197;-77
2022/07/25 04:10:27;;;;;;;9.70;7.38;;;;;;;-145.69;85.43;70515.00;5075790;28;20286;-78
2022/07/25 04:12:53;;;;;;;10.50;6.75;;;;;;;-145.69;87.36;70534.91;5075761;28;20206;-77
2022/07/25 04:15:19;;;;;;;8.50;7.05;;;;;;;-145.69;88.89;70550.81;5075784;28;20203;-77
2022/07/25 04:17:46;;;;;;;12.82;7.32;;;;;;;-145.69;88.66;70550.81;5075555;28;20206;-77
2022/07/25 04:20:13;;;;;;;10.65;7.20;;;;;;;-145.69;86.91;70538.88;5075591;28;20565;-77
2022/07/25 04:22:39;;;;;;;11.52;6.40;;;;;;;-145.69;88.24;70554.81;5075444;28;20226;-79
2022/07/25 04:25:06;;;;;;;10.23;6.88;;;;;;;-145.69;90.32;70566.75;5075661;28;20585;-77
2022/07/25 04:27:34;;;;;;;9.48;7.10;;;;;;;-145.69;90.08;70570.72;5075697;28;20608;-77
2022/07/25 04:30:01;;;;;;;10.93;6.80;;;;;;;-145.69;88.40;70552.81;5075446;28;20203;-77
2022/07/25 04:32:27;;;;;;;10.55;7.07;;;;;;;-145.69;87.85;70542.88;5074762;28;20202;-77
2022/07/25 04:34:54;;;;;;;10.52;6.78;;;;;;;-145.69;86.95;70530.94;5074504;28;20199;-77
2022/07/25 04:37:20;;;;;;;9.25;7.10;;;;;;;-145.69;86.27;70522.97;5075383;28;20211;-77
2022/07/25 04:39:47;;;;;;;9.85;6.78;;;;;;;-145.69;88.15;70520.97;5075368;28;20205;-77
2022/07/25 04:42:13;;;;;;;12.90;7.60;;;;;;;-145.69;89.10;70526.94;5075177;28;20707;-77
2022/07/25 04:44:41;;;;;;;9.93;7.13;;;;;;;-145.69;89.62;70538.88;5075076;28;20209;-78
2022/07/25 04:47:07;;;;;;;9.10;6.55;;;;;;;-145.69;89.48;70526.94;5075084;28;20207;-77
2022/07/25 04:49:34;;;;;;;9.52;7.00;;;;;;;-145.69;97.55;70574.69;5075123;28;20245;-77
2022/07/25 04:52:00;;;;;;;10.45;7.70;;;;;;;-145.69;99.07;70590.63;5074967;28;20665;-77
2022/07/25 04:54:27;;;;;;;10.65;6.95;;;;;;;-145.69;99.17;70602.56;5075051;28;20209;-77
2022/07/25 04:56:53;;;;;;;11.85;7.25;;;;;;;-145.69;97.09;70582.66;5075092;28;20218;-77
2022/07/25 04:59:20;;;;;;;12.32;7.80;;;;;;;-145.69;90.31;70509.03;5074940;28;20206;-76
2022/07/25 05:01:48;;;;;;;9.10;6.88;;;;;;;-145.69;88.48;70485.16;5072921;28;20213;-78
2022/07/25 05:04:14;;;;;;;10.05;7.18;;;;;;;-145.69;87.24;70443.41;5074229;28;20202;-77
2022/07/25 05:06:41;;;;;;;16.33;6.88;;;;;;;-145.69;83.83;70395.66;5073084;28;20199;-77
2022/07/25 05:09:07;;;;;;;10.82;7.20;;;;;;;-145.69;85.41;70409.56;5074674;28;20198;-77
2022/07/25 05:11:34;;;;;;;10.10;6.90;;;;;;;-145.69;87.77;70417.53;5071067;28;20202;-76
2022/07/25 05:14:00;;;;;;;11.75;7.43;;;;;;;-145.69;84.99;70387.69;5071952;28;20199;-75
2022/07/25 05:16:27;;;;;;;8.68;6.93;;;;;;;-145.69;84.12;70353.88;5074773;28;20205;-76
2022/07/25 05:18:54;;;;;;;9.65;7.05;;;;;;;-145.69;84.64;70353.88;5074619;28;20198;-76
2022/07/25 05:21:21;;;;;;;9.82;7.03;;;;;;;-145.69;84.98;70355.88;5060540;28;20668;-76
2022/07/25 05:23:47;;;;;;;13.80;7.60;;;;;;;-145.69;85.12;70320.06;5054307;28;20223;-76
2022/07/25 05:26:14;;;;;;;13.93;9.00;;;;;;;-145.69;85.36;70308.13;5054523;28;20574;-76
2022/07/25 05:28:40;;;;;;;12.88;8.13;;;;;;;-145.69;83.87;70284.25;5054211;28;20203;-76
2022/07/25 05:31:07;;;;;;;10.82;7.63;;;;;;;-145.69;84.98;70268.34;5054545;28;20249;-76
2022/07/25 05:33:34;;;;;;;9.27;7.20;;;;;;;-145.69;86.67;70288.22;5066871;28;20242;-76
2022/07/25 05:36:03;;;;;;;11.60;7.00;;;;;;;-145.69;87.75;70292.19;5074128;28;20653;-76
2022/07/25 05:38:30;;;;;;;10.88;7.88;;;;;;;-145.69;85.69;70236.50;5074082;28;20206;-76
2022/07/25 05:40:57;;;;;;;15.57;8.13;;;;;;;-145.69;85.89;70240.47;5074148;28;20206;-76
2022/07/25 05:43:23;;;;;;;13.30;8.35;;;;;;;-145.69;84.25;70208.66;5073889;28;20241;-76
2022/07/25 05:45:50;;;;;;;11.40;8.38;;;;;;;-145.69;79.74;70093.28;5073935;28;20657;-77
2022/07/25 05:48:16;;;;;;;10.27;7.35;;;;;;;-145.69;78.08;70025.66;5073844;28;20198;-76
2022/07/25 05:50:44;;;;;;;9.95;7.40;;;;;;;-145.69;75.57;69973.94;5073733;28;20234;-76
2022/07/25 05:53:12;;;;;;;13.52;7.90;;;;;;;-145.69;71.63;69904.31;5073370;28;20199;-77
2022/07/25 05:55:39;;;;;;;9.82;7.47;;;;;;;-145.69;72.27;69864.53;5073675;28;20203;-77
2022/07/25 05:58:05;;;;;;;11.80;8.30;;;;;;;-145.69;67.12;69818.78;5073656;28;20213;-77
2022/07/25 06:00:31;;;;;;;12.25;7.10;;;;;;;-145.69;67.42;69810.81;5073208;28;20187;-77
2022/07/25 06:02:59;;;;;;;10.07;7.10;;;;;;;-145.69;69.49;69830.72;5072718;28;20222;-77
2022/07/25 06:05:26;;;;;;;10.77;7.97;;;;;;;-145.69;72.63;69868.50;5073661;28;20249;-77
2022/07/25 06:07:52;;;;;;;10.00;7.57;;;;;;;-145.69;70.96;69826.72;5073633;28;20225;-77
2022/07/25 06:10:21;;;;;;;9.20;6.90;;;;;;;-145.69;70.63;69846.63;5071788;28;20203;-77
2022/07/25 06:12:47;;;;;;;10.68;7.60;;;;;;;-145.69;69.14;69822.75;5073502;28;20206;-77
2022/07/25 06:15:13;;;;;;;9.23;6.82;;;;;;;-145.69;67.25;69767.06;5073070;28;20687;-77
2022/07/25 06:17:40;;;;;;;9.05;6.65;;;;;;;-145.69;64.08;69721.31;5073533;28;20198;-77
2022/07/25 06:20:07;;;;;;;9.98;7.13;;;;;;;-145.69;62.93;69699.44;5073465;28;20203;-77
2022/07/25 06:22:34;;;;;;;9.73;7.30;;;;;;;-145.69;61.19;69699.44;5073314;28;20223;-78
2022/07/25 06:25:01;;;;;;;9.10;7.13;;;;;;;-145.69;61.76;69651.69;5073154;28;20204;-77
2022/07/25 06:27:29;;;;;;;9.57;6.97;;;;;;;-145.69;58.85;69643.75;5073401;28;20222;-77
2022/07/25 06:29:56;;;;;;;8.55;6.85;;;;;;;-145.69;59.60;69657.66;5072904;28;20203;-78
2022/07/25 06:32:22;;;;;;;9.05;6.57;;;;;;;-145.69;58.53;69661.66;5073120;28;20201;-78
2022/07/25 06:34:48;;;;;;;9.32;6.68;;;;;;;-145.69;56.58;69603.97;5073196;28;20202;-78
2022/07/25 06:37:15;;;;;;;12.32;6.45;;;;;;;-145.69;55.52;69548.28;5073066;28;20198;-77
2022/07/25 06:39:42;;;;;;;8.35;6.28;;;;;;;-145.69;54.88;69524.41;5073317;28;20226;-78
2022/07/25 06:42:08;;;;;;;8.70;5.97;;;;;;;-145.69;53.22;69498.56;5073149;28;20199;-78
2022/07/25 06:44:37;;;;;;;9.00;6.65;;;;;;;-145.69;56.11;69478.66;5073117;28;20230;-78
2022/07/25 06:47:04;;;;;;;9.45;6.35;;;;;;;-145.69;52.66;69468.72;5073071;28;20207;-79
2022/07/25 06:49:31;;;;;;;8.68;6.05;;;;;;;-145.69;52.21;69452.81;5072753;28;20701;-78
2022/07/25 06:51:58;;;;;;;8.93;6.15;;;;;;;-145.69;51.66;69488.59;5072948;28;20203;-79
2022/07/25 06:54:26;;;;;;;9.02;6.75;;;;;;;-145.69;51.27;69488.59;5073132;28;20202;-77
2022/07/25 06:56:58;;;;;;;10.25;6.20;;;;;;;-145.69;51.36;69498.56;5072991;28;20198;-78
2022/07/25 06:59:25;;;;;;;8.75;6.35;;;;;;;-145.69;50.81;69506.50;5072910;28;20210;-78
2022/07/25 07:01:55;;;;;;;8.55;6.05;;;;;;;-145.69;51.98;69518.44;5071004;28;20252;-78
2022/07/25 07:04:21;;;;;;;11.10;7.10;;;;;;;-145.69;51.03;69512.47;5072820;28;20719;-78
2022/07/25 07:06:50;;;;;;;8.93;6.85;;;;;;;-145.69;50.75;69496.56;5072838;28;20287;-77
2022/07/25 07:09:18;;;;;;;9.05;7.00;;;;;;;-145.69;52.62;69512.47;5072644;28;20202;-78
2022/07/25 07:11:47;;;;;;;10.45;6.65;;;;;;;-145.69;52.41;69502.53;5072868;28;20202;-78
2022/07/25 07:14:13;;;;;;;10.93;7.22;;;;;;;-145.69;51.26;69490.59;5061418;28;20207;-78
2022/07/25 07:16:43;;;;;;;8.32;6.15;;;;;;;-145.69;52.37;69496.56;5052594;28;20206;-78
2022/07/25 07:19:13;;;;;;;9.68;7.10;;;;;;;-145.69;54.58;69486.63;5052044;28;20432;-78
2022/07/25 07:21:39;;;;;;;11.27;6.60;;;;;;;-145.69;50.72;69480.66;5052683;28;20202;-78
2022/07/25 07:24:08;;;;;;;10.32;6.97;;;;;;;-145.69;50.62;69470.72;5052409;28;20227;-78
2022/07/25 07:26:35;;;;;;;9.65;7.13;;;;;;;-145.69;50.55;69462.75;5052467;28;20719;-78
2022/07/25 07:29:02;;;;;;;13.88;6.72;;;;;;;-145.69;55.28;69460.75;5052519;28;20221;-78
2022/07/25 07:31:29;;;;;;;9.45;6.68;;;;;;;-145.69;49.68;69450.81;5067422;28;20657;-78
2022/07/25 07:33:57;;;;;;;8.07;6.65;;;;;;;-145.69;49.44;69448.81;5072405;28;20629;-78
2022/07/25 07:36:25;;;;;;;10.00;6.88;;;;;;;-145.69;52.19;69440.88;5072581;28;20203;-78
2022/07/25 07:38:52;;;;;;;8.52;6.68;;;;;;;-145.69;50.42;69428.94;5072544;28;20543;-78
2022/07/25 07:41:19;;;;;;;8.30;6.13;;;;;;;-145.69;48.78;69424.97;5072515;28;20620;-78
2022/07/25 07:43:45;;;;;;;7.22;5.13;;;;;;;-145.69;43.63;69419.00;5072347;28;20711;-78
2022/07/25 07:46:12;;;;;;;8.48;5.47;;;;;;;-145.69;44.38;69393.13;5072269;28;20210;-77
2022/07/25 07:48:39;;;;;;;6.20;4.80;;;;;;;-145.69;42.20;69393.13;5072528;28;20203;-77
2022/07/25 07:51:06;;;;;;;8.13;5.15;;;;;;;-145.69;42.04;69371.25;5072426;28;20657;-77
2022/07/25 07:56:18;;;;;;;7.28;4.65;;;;;;;-145.69;39.56;69383.19;5072298;28;20222;-78
2022/07/25 07:58:45;;;;;;;5.80;4.22;;;;;;;-145.69;41.27;69361.31;5072224;28;20234;-79
2022/07/25 08:01:12;;;;;;;11.23;4.75;;;;;;;-145.69;38.39;69367.28;5071960;28;20195;-79
2022/07/25 08:03:38;;;;;;;6.30;3.97;;;;;;;-145.69;39.55;69357.34;5071483;28;20233;-79
2022/07/25 08:06:07;;;;;;;5.38;4.15;;;;;;;-145.69;38.70;69345.41;5071921;28;20191;-78
2022/07/25 08:08:35;;;;;;;5.57;4.10;;;;;;;-145.69;35.87;69339.44;5072096;28;20562;-78
2022/07/25 08:11:02;;;;;;;7.05;4.03;;;;;;;-145.69;36.88;69323.53;5074907;28;20209;-78
2022/07/25 08:13:30;;;;;;;8.25;4.55;;;;;;;-145.69;36.49;69325.53;5075943;28;20297;-78
2022/07/25 08:15:59;;;;;;;6.32;4.00;;;;;;;-145.69;37.81;69317.56;5076023;28;20226;-77
2022/07/25 08:18:28;;;;;;;5.78;4.13;;;;;;;-145.69;36.96;69317.56;5075817;28;20198;-78
2022/07/25 08:20:55;;;;;;;7.20;4.75;;;;;;;-145.69;37.62;69289.72;5075581;28;20709;-77
2022/07/25 08:23:24;;;;;;;4.90;4.03;;;;;;;-145.69;37.27;69277.78;5075207;28;20246;-78
2022/07/25 08:25:52;;;;;;;13.18;4.75;;;;;;;-145.69;37.65;69259.88;5075237;28;20557;-78
2022/07/25 08:28:19;;;;;;;6.50;4.20;;;;;;;-145.69;37.22;69285.75;5075342;28;20203;-78
2022/07/25 08:30:46;;;;;;;5.55;4.38;;;;;;;-145.69;36.52;69271.81;5075494;28;20649;-78
2022/07/25 08:33:14;;;;;;;6.68;4.68;;;;;;;-145.69;38.17;69261.88;5075612;28;20202;-78
2022/07/25 08:35:46;;;;;;;7.80;5.22;;;;;;;-145.69;37.17;69315.56;5075474;28;20585;-78
2022/07/25 08:38:15;;;;;;;6.63;5.10;;;;;;;-145.69;37.58;69321.53;5075411;28;20230;-78
2022/07/25 08:40:41;;;;;;;5.65;4.65;;;;;;;-145.69;38.52;69295.69;5075530;28;20203;-78
2022/07/25 08:43:12;;;;;;;6.18;4.93;;;;;;;-145.69;37.02;69327.50;5075070;28;20650;-77
2022/07/25 08:45:44;;;;;;;6.55;5.28;;;;;;;-145.69;38.13;69321.53;5075495;28;20266;-78
2022/07/25 08:48:11;;;;;;;6.53;4.97;;;;;;;-145.69;38.45;69303.63;5075253;28;20194;-78
2022/07/25 08:50:38;;;;;;;8.52;5.03;;;;;;;-145.69;38.83;69283.75;5074775;28;20234;-77
2022/07/25 08:53:05;;;;;;;7.05;5.18;;;;;;;-145.69;38.50;69249.94;5074718;28;20191;-78
2022/07/25 08:55:32;;;;;;;7.35;5.28;;;;;;;-145.69;38.63;69255.91;5074879;28;20195;-77
2022/07/25 08:57:59;;;;;;;7.03;5.00;;;;;;;-145.69;38.34;69253.91;5074973;28;20249;-77
2022/07/25 09:00:28;;;;;;;7.13;5.32;;;;;;;-145.69;39.88;69228.06;5074946;28;20228;-78
2022/07/25 09:02:56;;;;;;;6.18;5.07;;;;;;;-145.69;40.23;69184.31;5074696;28;20203;-77
2022/07/25 09:05:27;;;;;;;7.10;4.68;;;;;;;-145.69;37.91;69206.19;5074652;28;20266;-78
2022/07/25 09:07:55;;;;;;;7.00;5.38;;;;;;;-145.69;37.94;69255.91;5074598;28;20437;-78
2022/07/25 09:10:23;;;;;;;11.70;5.32;;;;;;;-145.69;37.11;69263.88;5074829;28;20203;-77
2022/07/25 09:12:55;;;;;;;7.13;4.75;;;;;;;-145.69;38.53;69234.03;5074503;28;20230;-77
2022/07/25 09:15:31;;;;;;;8.10;5.32;;;;;;;-145.69;37.93;69184.31;5068045;28;20203;-77
2022/07/25 09:18:00;;;;;;;7.25;4.63;;;;;;;-145.69;36.72;69202.22;5054504;28;20669;-77
2022/07/25 09:20:38;;;;;;;9.18;5.03;;;;;;;-145.69;37.49;69200.22;5054085;28;20674;-77
2022/07/25 09:23:05;;;;;;;8.10;5.10;;;;;;;-145.69;36.27;69240.00;5064711;28;20210;-78
2022/07/25 09:25:31;;;;;;;7.50;5.25;;;;;;;-145.69;36.55;69214.16;5074423;28;20242;-78
2022/07/25 09:28:10;;;;;;;6.70;5.38;;;;;;;-145.69;39.70;69168.41;5074249;28;20710;-77
2022/07/25 09:30:39;;;;;;;7.05;5.25;;;;;;;-145.69;36.89;69184.31;5074626;28;20199;-77
2022/07/25 09:33:05;;;;;;;7.03;4.80;;;;;;;-145.69;37.02;69192.25;5074141;28;20664;-77
2022/07/25 09:35:34;;;;;;;7.18;5.15;;;;;;;-145.69;37.90;69148.50;5074010;28;20207;-77
2022/07/25 09:38:11;;;;;;;8.68;5.43;;;;;;;-145.69;36.39;69166.41;5074280;28;20207;-77
2022/07/25 09:40:38;;;;;;;7.05;5.05;;;;;;;-145.69;36.75;69192.25;5074115;28;20206;-76
2022/07/25 09:43:05;;;;;;;7.53;5.35;;;;;;;-145.69;36.97;69198.22;5073994;28;20206;-76
2022/07/25 09:45:32;;;;;;;6.85;5.50;;;;;;;-145.69;37.29;69178.34;5072986;28;20817;-79
2022/07/25 09:48:01;;;;;;;8.60;5.20;;;;;;;-145.69;36.17;69176.34;5074049;28;20203;-77
2022/07/25 09:50:30;;;;;;;8.65;4.95;;;;;;;-145.69;38.50;69154.47;5073826;28;20731;-77
2022/07/25 09:52:59;;;;;;;6.75;4.90;;;;;;;-145.69;36.71;69128.63;5073452;28;20197;-77
2022/07/25 09:55:26;;;;;;;7.95;5.03;;;;;;;-145.69;36.15;69118.69;5073640;28;20198;-77
2022/07/25 09:57:52;;;;;;;8.85;5.53;;;;;;;-145.69;36.57;69154.47;5073886;28;20211;-78
2022/07/25 10:00:22;;;;;;;8.07;5.07;;;;;;;-145.69;35.93;69142.56;5073521;28;20191;-78
2022/07/25 10:02:55;;;;;;;5.30;4.50;;;;;;;-145.69;37.09;69110.72;5073089;28;20542;-77
2022/07/25 10:05:35;;;;;;;6.13;4.47;;;;;;;-145.69;35.85;69074.94;5073632;28;20230;-76
2022/07/25 10:08:06;;;;;;;6.88;4.53;;;;;;;-145.69;35.91;69055.03;5073605;28;20656;-77
2022/07/25 10:10:38;;;;;;;8.00;4.82;;;;;;;-145.69;35.46;69061.00;5073495;28;20238;-77
2022/07/25 10:13:09;;;;;;;7.00;4.80;;;;;;;-145.69;35.53;69049.06;5073453;28;20332;-77
2022/07/25 10:15:47;;;;;;;6.20;4.07;;;;;;;-145.69;33.29;69035.16;5073602;28;20210;-76
2022/07/25 10:18:14;;;;;;;5.97;4.32;;;;;;;-145.69;34.57;69037.16;5073150;28;20202;-77
2022/07/25 10:20:43;;;;;;;4.68;3.88;;;;;;;-145.69;32.64;69057.03;5073635;28;20197;-76
2022/07/25 10:23:24;;;;;;;5.78;4.10;;;;;;;-145.69;34.93;69072.94;5073461;28;20207;-78
2022/07/25 10:26:02;;;;;;;5.40;3.95;;;;;;;-145.69;33.61;69037.16;5073304;28;20226;-76
2022/07/25 10:28:38;;;;;;;4.85;3.80;;;;;;;-145.69;32.79;69035.16;5073222;28;20557;-76
2022/07/25 10:31:14;;;;;;;7.40;4.40;;;;;;;-145.69;32.91;69045.09;5073181;28;20202;-78
2022/07/25 10:33:42;;;;;;;7.75;4.18;;;;;;;-145.69;31.81;69035.16;5072260;28;20194;-77
2022/07/25 10:36:11;;;;;;;5.03;3.92;;;;;;;-145.69;31.62;69051.06;5073260;28;20542;-76
2022/07/25 10:38:39;;;;;;;5.78;4.38;;;;;;;-145.69;32.74;69033.16;5072945;28;20704;-78
2022/07/25 10:41:07;;;;;;;5.85;4.28;;;;;;;-145.69;32.32;69027.19;5072996;28;20202;-79
2022/07/25 10:43:38;;;;;;;5.97;4.80;;;;;;;-145.69;32.48;69019.25;5073111;28;20207;-78
2022/07/25 10:46:12;;;;;;;6.97;3.95;;;;;;;-145.69;33.01;69027.19;5073194;28;20210;-77
2022/07/25 10:48:38;;;;;;;5.53;4.28;;;;;;;-145.69;33.19;69003.34;5073086;28;20227;-78
2022/07/25 10:51:07;;;;;;;8.00;4.18;;;;;;;-145.69;32.38;68995.38;5072596;28;20697;-77
2022/07/25 10:53:38;;;;;;;7.47;4.60;;;;;;;-145.69;32.02;68981.47;5072003;28;20438;-77
2022/07/25 10:56:13;;;;;;;7.28;4.70;;;;;;;-145.69;31.39;68991.41;5073099;28;20194;-77
2022/07/25 10:58:46;;;;;;;6.10;4.72;;;;;;;-145.69;34.37;68971.53;5072664;28;20288;-78
2022/07/25 11:01:13;;;;;;;5.28;3.95;;;;;;;-145.69;32.84;68937.72;5074951;28;20203;-76
2022/07/25 11:03:43;;;;;;;5.80;4.50;;;;;;;-145.69;31.40;68971.53;5072422;28;20606;-77
2022/07/25 11:06:10;;;;;;;5.55;4.53;;;;;;;-145.69;31.68;68989.41;5072724;28;20214;-77
2022/07/25 11:08:38;;;;;;;8.95;4.50;;;;;;;-145.69;31.23;68959.59;5070507;28;20206;-77
2022/07/25 11:11:05;;;;;;;5.28;3.50;;;;;;;-145.69;31.48;68937.72;5073080;28;20281;-77
2022/07/25 11:13:36;;;;;;;7.18;4.00;;;;;;;-145.69;31.16;68969.53;5072780;28;20205;-78
2022/07/25 11:16:03;;;;;;;8.52;4.43;;;;;;;-145.69;31.32;68935.72;5072293;28;20554;-78